Time;durP1;ratioP1;P1;durP2;ratioP2;P2;SDS_P1;SDS_P2;PMS_P1;PMS_P2;Temp;Humidity;BMP_temperature;BMP_pressure;BME280_temperature;BME280_humidity;BME280_pressure;Samples;Min_cycle;Max_cycle;Signal;HPM_P1;HPM_P2
2022/11/17 00:01:19;;;;;;;8.30;7.37;;;;;;;5.66;95.99;100065.84;4982601;28;20237;-53
2022/11/17 00:03:48;;;;;;;7.90;7.20;;;;;;;5.67;96.54;100068.44;4983888;28;20365;-53
2022/11/17 00:06:16;;;;;;;9.37;7.67;;;;;;;5.92;95.39;100066.03;4982124;28;20291;-54
2022/11/17 00:08:44;;;;;;;8.43;7.63;;;;;;;5.63;96.19;100060.59;4985463;28;20672;-54
2022/11/17 00:11:11;;;;;;;8.37;7.53;;;;;;;5.57;94.48;100066.63;4974827;28;20230;-53
2022/11/17 00:16:37;;;;;;;8.83;7.93;;;;;;;5.98;95.37;100058.28;4929923;29;20240;-53
2022/11/17 00:21:54;;;;;;;8.70;7.50;;;;;;;5.73;96.92;100052.88;4900760;28;21964;-54
2022/11/17 00:24:22;;;;;;;11.40;7.97;;;;;;;5.85;96.19;100051.22;4983183;28;20321;-53
2022/11/17 00:27:01;;;;;;;8.47;7.77;;;;;;;5.51;95.92;100056.19;4987098;28;20891;-54
2022/11/17 00:29:28;;;;;;;8.60;7.80;;;;;;;5.64;97.95;100055.41;4985770;28;20238;-54
2022/11/17 00:34:41;;;;;;;9.63;8.33;;;;;;;5.84;96.13;100052.94;4976981;28;20709;-53
2022/11/17 00:37:08;;;;;;;8.80;7.90;;;;;;;5.48;96.06;100057.00;4976907;28;20342;-53
2022/11/17 00:39:35;;;;;;;11.37;7.93;;;;;;;5.67;97.22;100047.59;4978913;28;20242;-56
2022/11/17 00:42:02;;;;;;;9.20;7.80;;;;;;;5.74;96.61;100043.31;4989043;28;20676;-53
2022/11/17 00:44:29;;;;;;;8.50;7.70;;;;;;;5.59;94.34;100048.44;4977530;28;20260;-53
2022/11/17 00:46:56;;;;;;;9.17;8.30;;;;;;;5.54;95.35;100040.56;4979625;28;20257;-53
2022/11/17 00:49:25;;;;;;;7.77;6.97;;;;;;;5.29;95.67;100039.47;4978036;28;20240;-54
2022/11/17 00:51:54;;;;;;;9.37;7.93;;;;;;;5.27;98.05;100041.22;4979795;28;20229;-54
2022/11/17 00:54:21;;;;;;;8.53;7.63;;;;;;;5.45;96.11;100036.16;4982520;28;20811;-54
2022/11/17 00:56:47;;;;;;;9.13;7.57;;;;;;;5.25;96.61;100033.38;4976968;28;20600;-53
2022/11/17 00:59:14;;;;;;;8.77;7.87;;;;;;;5.43;97.62;100042.19;4984221;28;20589;-54
2022/11/17 01:01:42;;;;;;;9.57;8.57;;;;;;;5.46;99.12;100037.03;4977757;28;20585;-54
2022/11/17 01:04:09;;;;;;;8.70;7.80;;;;;;;5.57;94.75;100037.97;4979224;28;20234;-54
2022/11/17 01:06:37;;;;;;;9.77;7.83;;;;;;;5.62;96.62;100043.25;4979249;28;20245;-54
2022/11/17 01:09:08;;;;;;;9.23;8.23;;;;;;;5.12;94.84;100043.66;4980143;28;20316;-54
2022/11/17 01:11:34;;;;;;;8.70;7.67;;;;;;;5.21;96.31;100046.34;4977820;28;20583;-54
2022/11/17 01:14:01;;;;;;;10.23;8.73;;;;;;;5.31;96.49;100036.91;4975630;28;20249;-54
2022/11/17 01:16:29;;;;;;;8.53;7.80;;;;;;;5.48;95.69;100030.13;4985059;28;20720;-53
2022/11/17 01:18:59;;;;;;;9.67;8.67;;;;;;;5.30;95.18;100041.25;4980472;28;20269;-54
2022/11/17 01:21:27;;;;;;;9.23;7.73;;;;;;;5.15;95.73;100043.69;4977931;28;20245;-53
2022/11/17 01:23:56;;;;;;;9.07;8.20;;;;;;;5.13;96.17;100033.28;4985395;28;20320;-54
2022/11/17 01:26:26;;;;;;;8.53;7.67;;;;;;;5.02;98.75;100042.72;4980417;28;20254;-54
2022/11/17 01:28:53;;;;;;;8.10;7.30;;;;;;;5.12;97.29;100036.72;4981224;28;20297;-59
2022/11/17 01:31:22;;;;;;;8.03;7.30;;;;;;;4.91;95.50;100032.16;4979301;28;20234;-53
2022/11/17 01:33:50;;;;;;;9.57;8.63;;;;;;;5.03;96.84;100036.63;4974536;28;20238;-53
2022/11/17 01:36:18;;;;;;;9.90;8.43;;;;;;;5.26;96.74;100024.72;4977832;28;20249;-54
2022/11/17 01:38:45;;;;;;;7.70;6.97;;;;;;;4.85;98.46;100021.72;4983661;28;20324;-52
2022/11/17 01:41:15;;;;;;;8.33;7.53;;;;;;;4.87;98.48;100025.19;4979558;28;20285;-54
2022/11/17 01:43:45;;;;;;;9.40;8.40;;;;;;;5.21;99.10;100012.53;4975791;28;20258;-53
2022/11/17 01:46:19;;;;;;;7.77;7.07;;;;;;;5.30;95.38;100006.50;4979090;28;20260;-54
2022/11/17 01:48:46;;;;;;;8.90;7.27;;;;;;;5.09;95.13;100018.50;4977744;28;20226;-54
2022/11/17 01:51:14;;;;;;;8.90;7.83;;;;;;;5.09;96.32;100008.09;4974466;28;20707;-53
2022/11/17 01:53:44;;;;;;;7.83;7.10;;;;;;;5.11;95.99;100014.16;4982431;28;20273;-53
2022/11/17 01:56:14;;;;;;;9.93;7.93;;;;;;;5.04;96.77;100009.75;4976428;28;20617;-54
2022/11/17 01:58:44;;;;;;;8.23;7.43;;;;;;;4.88;95.93;100008.75;4979507;28;20236;-54
2022/11/17 02:01:11;;;;;;;7.50;6.80;;;;;;;5.00;95.97;100007.97;4975968;28;20639;-53
2022/11/17 02:03:39;;;;;;;8.93;7.43;;;;;;;5.28;94.92;100000.44;4973709;28;20245;-53
2022/11/17 02:06:08;;;;;;;8.07;7.27;;;;;;;5.12;95.85;100010.69;4979890;28;20245;-53
2022/11/17 02:08:37;;;;;;;7.97;7.27;;;;;;;5.17;93.87;100003.81;4978646;28;20254;-53
2022/11/17 02:11:06;;;;;;;9.17;7.10;;;;;;;5.53;94.97;100002.38;4980135;28;20253;-54
2022/11/17 02:13:34;;;;;;;8.70;7.80;;;;;;;5.05;93.44;99997.63;4973610;28;20226;-54
2022/11/17 02:16:02;;;;;;;8.17;7.37;;;;;;;5.14;94.62;100013.31;4981652;28;20238;-53
2022/11/17 02:18:29;;;;;;;9.13;8.23;;;;;;;5.01;95.85;100001.91;4977956;28;20230;-53
2022/11/17 02:21:20;;;;;;;10.17;7.50;;;;;;;5.16;97.02;100006.38;4979262;28;20313;-54
2022/11/17 02:24:00;;;;;;;8.60;7.80;;;;;;;4.97;95.39;100002.75;4976375;28;20253;-53
2022/11/17 02:27:03;;;;;;;8.00;7.30;;;;;;;5.37;96.87;99997.88;4981999;28;20257;-53
2022/11/17 02:29:35;;;;;;;9.53;7.63;;;;;;;4.94;96.41;99993.19;4936873;28;20357;-55
2022/11/17 02:32:05;;;;;;;8.63;7.83;;;;;;;5.00;95.37;99992.38;4978853;28;20752;-53
2022/11/17 02:34:38;;;;;;;9.10;8.27;;;;;;;4.97;95.34;99989.75;4977085;28;20318;-53
2022/11/17 02:37:10;;;;;;;8.53;7.53;;;;;;;5.32;95.15;99997.00;4984270;28;20264;-54
2022/11/17 02:39:41;;;;;;;9.40;8.50;;;;;;;5.21;93.37;99989.97;4982794;28;20230;-53
2022/11/17 02:42:11;;;;;;;8.40;7.60;;;;;;;4.93;96.13;99994.03;4977553;28;20233;-54
2022/11/17 02:44:41;;;;;;;9.47;8.30;;;;;;;5.10;96.40;99991.59;4977928;28;20280;-53
2022/11/17 02:47:10;;;;;;;8.77;8.00;;;;;;;4.81;96.13;99988.72;4975664;28;20266;-53
2022/11/17 02:49:39;;;;;;;9.67;8.67;;;;;;;4.82;97.58;99979.19;4984201;28;20756;-54
2022/11/17 02:52:06;;;;;;;11.30;8.40;;;;;;;5.23;96.58;99979.59;4978719;28;20260;-53
2022/11/17 02:54:33;;;;;;;9.07;7.57;;;;;;;5.12;96.40;99974.25;4984346;28;20243;-53
2022/11/17 02:57:00;;;;;;;9.47;7.97;;;;;;;4.91;97.33;99966.25;4978122;28;20334;-54
2022/11/17 02:59:30;;;;;;;9.27;8.20;;;;;;;5.09;95.70;99963.84;4980683;28;20244;-54
2022/11/17 03:02:26;;;;;;;9.30;8.33;;;;;;;5.30;95.67;99964.88;4982361;28;20344;-53
2022/11/17 03:05:04;;;;;;;9.77;8.77;;;;;;;5.10;93.85;99965.59;4966305;28;20768;-54
2022/11/17 03:07:56;;;;;;;8.40;7.60;;;;;;;5.18;95.00;99963.03;4976497;28;20262;-53
2022/11/17 03:10:29;;;;;;;9.23;8.23;;;;;;;4.84;94.44;99961.88;4967485;28;20666;-53
2022/11/17 03:13:00;;;;;;;8.73;7.83;;;;;;;4.74;94.33;99969.59;4981294;28;20336;-53
2022/11/17 03:15:29;;;;;;;8.90;7.87;;;;;;;5.14;95.56;99964.75;4984338;28;20237;-54
2022/11/17 03:18:04;;;;;;;8.77;7.83;;;;;;;4.90;92.67;99961.94;4975405;28;20248;-54
2022/11/17 03:20:35;;;;;;;10.20;8.33;;;;;;;4.95;95.38;99960.22;4982376;28;20240;-53
2022/11/17 03:23:05;;;;;;;11.00;8.37;;;;;;;5.03;95.90;99953.38;4976369;28;20242;-54
2022/11/17 03:25:33;;;;;;;9.67;8.03;;;;;;;4.90;96.68;99961.94;4977734;28;20238;-53
2022/11/17 03:28:04;;;;;;;9.60;8.70;;;;;;;4.81;96.67;99952.31;4977841;28;20803;-54
2022/11/17 03:30:32;;;;;;;10.73;8.73;;;;;;;4.90;97.25;99952.41;4976887;28;20246;-55
2022/11/17 03:33:04;;;;;;;9.30;8.40;;;;;;;4.98;98.82;99957.66;4979500;28;20313;-54
2022/11/17 03:35:35;;;;;;;10.30;9.30;;;;;;;5.07;95.57;99975.97;4976548;28;20607;-54
2022/11/17 03:38:07;;;;;;;8.97;7.93;;;;;;;4.81;98.94;99962.72;4979786;28;20238;-53
2022/11/17 03:40:35;;;;;;;9.83;8.30;;;;;;;4.86;95.27;99961.03;4978374;28;20229;-54
2022/11/17 03:43:04;;;;;;;9.10;8.17;;;;;;;5.21;93.53;99961.34;4974437;28;20280;-54
2022/11/17 03:45:32;;;;;;;9.13;7.73;;;;;;;5.23;93.89;99961.38;4979195;28;20241;-53
2022/11/17 03:48:04;;;;;;;9.40;8.40;;;;;;;5.10;95.29;99952.59;4977984;28;20276;-54
2022/11/17 03:50:33;;;;;;;9.60;8.43;;;;;;;5.12;95.54;99958.66;4984167;28;20225;-54
2022/11/17 03:53:01;;;;;;;8.17;7.47;;;;;;;4.72;97.09;99947.88;4981668;28;20243;-54
2022/11/17 03:55:34;;;;;;;8.93;8.03;;;;;;;5.19;98.24;99952.63;4968743;28;20243;-53
2022/11/17 03:58:04;;;;;;;8.63;7.70;;;;;;;4.96;95.65;99946.38;4971221;28;20253;-53
2022/11/17 04:00:32;;;;;;;10.30;8.00;;;;;;;4.80;95.96;99945.34;4982976;28;20288;-54
2022/11/17 04:03:00;;;;;;;8.73;7.93;;;;;;;4.96;99.44;99942.06;4978446;28;20321;-54
2022/11/17 04:05:27;;;;;;;10.23;8.40;;;;;;;4.99;97.67;99946.41;4978889;28;20270;-53
2022/11/17 04:07:54;;;;;;;10.03;9.03;;;;;;;4.71;96.78;99946.16;4981695;28;20281;-53
2022/11/17 04:10:24;;;;;;;10.03;8.37;;;;;;;4.92;96.74;99955.03;4977117;28;20231;-52
2022/11/17 04:18:22;;;;;;;9.60;8.50;;;;;;;5.02;96.54;99938.66;4981277;28;20288;-54
2022/11/17 04:20:50;;;;;;;10.07;9.17;;;;;;;4.82;97.84;99937.59;4975540;28;20229;-53
2022/11/17 04:23:18;;;;;;;11.47;9.03;;;;;;;4.98;99.70;99929.94;4968952;28;20966;-53
2022/11/17 04:28:37;;;;;;;8.57;7.70;;;;;;;4.67;97.48;99927.88;4982925;28;20237;-53
2022/11/17 04:31:09;;;;;;;10.60;9.50;;;;;;;4.80;97.80;99916.75;4978347;28;20234;-53
2022/11/17 04:33:38;;;;;;;10.07;9.07;;;;;;;4.99;97.42;99915.22;4974913;28;20268;-57
2022/11/17 04:36:09;;;;;;;10.00;8.23;;;;;;;4.72;98.01;99921.88;4974584;28;20868;-54
2022/11/17 04:38:36;;;;;;;9.70;8.33;;;;;;;5.07;97.51;99920.47;4972227;28;20246;-55
2022/11/17 04:43:55;;;;;;;11.17;9.50;;;;;;;4.70;97.97;99918.44;4968694;28;20233;-54
2022/11/17 04:46:23;;;;;;;10.43;9.20;;;;;;;4.63;98.03;99920.91;4980329;28;20228;-53
2022/11/17 04:48:52;;;;;;;9.43;8.57;;;;;;;4.76;99.44;99921.06;4980769;28;20737;-53
2022/11/17 04:51:19;;;;;;;11.60;9.17;;;;;;;4.53;100.00;99912.19;4985145;28;20808;-55
2022/11/17 04:53:46;;;;;;;8.70;7.90;;;;;;;4.71;99.50;99914.09;4973650;28;20549;-53
2022/11/17 04:56:13;;;;;;;11.13;8.60;;;;;;;4.74;99.79;99920.19;4982019;28;20230;-53
2022/11/17 04:58:40;;;;;;;10.00;9.07;;;;;;;4.94;100.00;99915.16;4981444;28;20243;-54
2022/11/17 05:01:14;;;;;;;11.13;8.63;;;;;;;4.67;98.92;99913.19;4982295;28;20226;-53
2022/11/17 05:03:42;;;;;;;10.83;9.83;;;;;;;4.97;99.92;99911.72;4977236;28;20324;-55
2022/11/17 05:06:11;;;;;;;9.90;8.90;;;;;;;5.01;98.33;99919.53;4977266;28;20242;-54
2022/11/17 05:08:39;;;;;;;10.47;9.17;;;;;;;5.08;97.65;99919.59;4976650;28;20249;-53
2022/11/17 05:13:52;;;;;;;12.33;9.57;;;;;;;4.91;98.67;99911.66;4985737;28;20727;-52
2022/11/17 05:19:05;;;;;;;10.57;9.47;;;;;;;4.73;100.00;99901.97;4976934;28;20270;-54
2022/11/17 05:21:34;;;;;;;10.87;9.80;;;;;;;4.68;100.00;99895.84;4978080;28;20752;-53
2022/11/17 05:24:00;;;;;;;11.63;10.43;;;;;;;4.97;99.07;99896.09;4981581;28;20292;-53
2022/11/17 05:26:28;;;;;;;9.73;8.57;;;;;;;4.73;99.38;99902.81;4972939;28;20238;-52
2022/11/17 05:28:57;;;;;;;9.93;9.00;;;;;;;5.07;100.00;99894.44;4973285;28;21851;-53
2022/11/17 05:31:25;;;;;;;12.40;9.23;;;;;;;4.68;99.98;99899.31;4973391;28;20277;-53
2022/11/17 05:33:52;;;;;;;11.67;9.63;;;;;;;4.76;99.46;99886.38;4974018;28;20253;-53
2022/11/17 05:36:20;;;;;;;9.90;8.97;;;;;;;4.95;100.00;99879.59;4977153;28;20677;-53
2022/11/17 05:38:49;;;;;;;11.33;10.13;;;;;;;5.08;100.00;99884.03;4977418;28;20615;-53
2022/11/17 05:41:16;;;;;;;9.70;8.70;;;;;;;5.07;99.72;99882.31;4976987;28;20624;-54
2022/11/17 05:43:44;;;;;;;11.67;10.50;;;;;;;4.79;98.39;99881.22;4977966;28;20742;-53
2022/11/17 05:46:11;;;;;;;9.63;8.63;;;;;;;5.15;99.66;99880.63;4974204;28;20266;-52
2022/11/17 05:48:38;;;;;;;10.67;9.37;;;;;;;4.72;99.92;99875.09;4978085;28;20243;-54
2022/11/17 05:51:06;;;;;;;13.23;10.63;;;;;;;4.71;100.00;99881.16;4974304;28;20258;-54
2022/11/17 05:53:36;;;;;;;10.70;9.60;;;;;;;4.76;100.00;99866.44;4979863;28;20241;-54
2022/11/17 05:56:10;;;;;;;10.67;9.50;;;;;;;4.90;100.00;99874.38;4978922;28;20319;-52
2022/11/17 05:58:38;;;;;;;10.73;9.60;;;;;;;4.90;99.31;99879.56;4979885;28;20234;-53
2022/11/17 06:01:06;;;;;;;10.50;9.37;;;;;;;4.89;99.61;99884.78;4979632;28;20241;-53
2022/11/17 06:03:35;;;;;;;10.27;9.27;;;;;;;5.02;98.71;99884.03;4981323;28;20305;-57
2022/11/17 06:06:02;;;;;;;9.70;8.70;;;;;;;5.09;100.00;99874.50;4978806;28;20237;-53
2022/11/17 06:08:30;;;;;;;12.90;9.63;;;;;;;5.30;97.78;99878.97;4980844;28;20283;-59
2022/11/17 06:10:57;;;;;;;10.23;9.13;;;;;;;5.14;99.20;99878.88;4974519;28;20238;-54
2022/11/17 06:13:27;;;;;;;12.60;9.73;;;;;;;5.22;100.00;99885.00;4984521;28;20763;-53
2022/11/17 06:15:55;;;;;;;10.30;9.07;;;;;;;5.41;99.85;99882.56;4986455;28;20319;-53
2022/11/17 06:18:25;;;;;;;9.80;8.80;;;;;;;5.32;99.41;99865.13;4981290;28;20231;-53
2022/11/17 06:20:53;;;;;;;11.03;9.67;;;;;;;5.21;100.00;99872.00;4971666;28;20229;-53
2022/11/17 06:23:21;;;;;;;9.77;8.77;;;;;;;5.21;99.86;99875.47;4976630;28;20332;-54
2022/11/17 06:25:48;;;;;;;9.23;8.30;;;;;;;5.35;98.67;99869.50;4979131;28;20241;-55
2022/11/17 06:28:17;;;;;;;8.90;8.00;;;;;;;5.29;98.19;99872.91;4971753;28;20244;-53
2022/11/17 06:30:45;;;;;;;10.00;9.00;;;;;;;5.35;96.87;99865.16;4977091;28;20666;-53
2022/11/17 06:33:14;;;;;;;10.50;9.13;;;;;;;5.53;96.12;99861.78;4977946;28;20233;-53
2022/11/17 06:35:42;;;;;;;9.63;8.63;;;;;;;5.16;98.44;99869.38;4981006;28;20230;-54
2022/11/17 06:38:09;;;;;;;10.50;9.43;;;;;;;5.35;97.55;99861.69;4976605;28;20904;-57
2022/11/17 06:40:36;;;;;;;10.77;9.67;;;;;;;5.22;98.69;99859.00;4983840;28;20288;-57
2022/11/17 06:43:09;;;;;;;9.50;8.50;;;;;;;5.32;100.00;99857.31;4981882;28;20288;-55
2022/11/17 06:45:37;;;;;;;10.27;8.90;;;;;;;5.33;99.42;99850.38;4979935;28;20659;-57
2022/11/17 06:48:06;;;;;;;10.97;9.20;;;;;;;5.20;98.89;99845.13;4978200;28;20305;-53
2022/11/17 06:50:33;;;;;;;11.17;8.80;;;;;;;5.02;100.00;99850.19;4973873;28;20238;-54
2022/11/17 06:53:01;;;;;;;13.90;10.10;;;;;;;5.01;99.14;99851.91;4970841;28;20328;-53
2022/11/17 06:55:29;;;;;;;9.80;8.50;;;;;;;5.16;99.13;99851.16;4983266;28;20241;-55
2022/11/17 06:57:59;;;;;;;11.93;9.50;;;;;;;5.08;100.00;99842.41;4980934;28;20237;-54
2022/11/17 07:00:26;;;;;;;11.10;9.53;;;;;;;5.31;97.91;99836.50;4981228;28;20233;-54
2022/11/17 07:02:53;;;;;;;10.67;9.27;;;;;;;5.45;96.46;99838.31;4978510;28;20237;-55
2022/11/17 07:05:22;;;;;;;10.13;9.03;;;;;;;5.40;98.42;99839.13;4981196;28;20240;-53
2022/11/17 07:07:48;;;;;;;10.60;8.87;;;;;;;4.93;99.68;99834.50;4982230;28;20720;-54
2022/11/17 07:10:16;;;;;;;10.53;9.40;;;;;;;5.33;100.00;99832.16;4977249;28;20281;-54
2022/11/17 07:12:43;;;;;;;10.17;8.87;;;;;;;5.21;99.01;99825.16;4982391;28;20253;-53
2022/11/17 07:15:10;;;;;;;9.93;8.90;;;;;;;5.44;97.32;99825.28;4975128;28;20327;-54
2022/11/17 07:17:37;;;;;;;15.50;8.83;;;;;;;5.53;97.69;99835.75;4981945;28;20238;-54
2022/11/17 07:20:05;;;;;;;9.70;8.80;;;;;;;5.40;96.50;99823.53;4976277;28;20242;-53
2022/11/17 07:22:33;;;;;;;9.50;8.10;;;;;;;5.54;98.97;99831.41;4978182;28;20234;-54
2022/11/17 07:25:00;;;;;;;8.80;8.00;;;;;;;5.14;97.42;99829.47;4982617;28;20325;-53
2022/11/17 07:27:27;;;;;;;9.13;8.23;;;;;;;5.08;98.37;99826.81;4976684;28;20254;-53
2022/11/17 07:29:54;;;;;;;9.80;8.80;;;;;;;5.07;99.39;99834.63;4977981;28;20230;-54
2022/11/17 07:32:21;;;;;;;10.77;9.67;;;;;;;4.82;100.00;99833.56;4971418;28;20261;-53
2022/11/17 07:34:47;;;;;;;10.77;8.53;;;;;;;5.12;99.05;99828.56;4978554;28;20841;-54
2022/11/17 07:37:15;;;;;;;9.63;8.63;;;;;;;5.10;99.38;99840.72;4983665;28;20256;-52
2022/11/17 07:39:43;;;;;;;10.30;9.03;;;;;;;5.29;98.68;99836.47;4982613;28;20668;-53
2022/11/17 07:42:10;;;;;;;9.23;8.33;;;;;;;5.50;100.00;99841.78;4975907;28;20309;-54
2022/11/17 07:44:37;;;;;;;9.57;8.67;;;;;;;5.41;95.45;99846.97;4981786;28;20736;-53
2022/11/17 07:47:03;;;;;;;8.37;7.57;;;;;;;5.40;95.95;99854.75;4981394;28;20273;-53
2022/11/17 07:49:30;;;;;;;9.33;8.37;;;;;;;5.32;97.54;99846.03;4973580;28;20323;-54
2022/11/17 07:51:57;;;;;;;9.40;7.87;;;;;;;5.27;96.16;99840.81;4972510;28;20284;-53
2022/11/17 07:54:24;;;;;;;8.20;7.40;;;;;;;5.55;97.22;99839.25;4977568;28;20225;-54
2022/11/17 07:56:52;;;;;;;8.00;7.30;;;;;;;5.03;96.45;99842.41;4980368;28;20240;-53
2022/11/17 07:59:20;;;;;;;8.40;7.60;;;;;;;5.07;99.19;99832.88;4975305;28;20624;-54
2022/11/17 08:01:47;;;;;;;9.00;7.97;;;;;;;5.11;97.34;99833.78;4978243;28;20233;-52
2022/11/17 08:04:14;;;;;;;8.90;7.57;;;;;;;5.24;96.64;99843.41;4978032;28;20230;-55
2022/11/17 08:06:41;;;;;;;9.37;8.47;;;;;;;5.37;96.49;99833.91;4976358;28;20253;-53
2022/11/17 08:09:09;;;;;;;8.87;7.70;;;;;;;5.22;99.48;99830.38;4971508;28;20476;-54
2022/11/17 08:11:36;;;;;;;8.43;7.53;;;;;;;5.29;96.85;99831.28;4981175;28;20406;-59
2022/11/17 08:14:04;;;;;;;8.97;8.07;;;;;;;5.22;96.21;99822.56;4971479;28;20742;-53
2022/11/17 08:16:32;;;;;;;10.97;8.20;;;;;;;5.21;96.33;99839.03;4981208;28;20232;-53
2022/11/17 08:18:59;;;;;;;11.57;8.37;;;;;;;5.18;96.63;99828.59;4981571;28;20237;-52
2022/11/17 08:21:26;;;;;;;8.43;7.47;;;;;;;5.25;98.34;99813.91;4982966;28;20226;-52
2022/11/17 08:23:54;;;;;;;8.70;7.47;;;;;;;5.38;96.94;99820.06;4979947;28;20229;-52
2022/11/17 08:26:23;;;;;;;12.33;8.20;;;;;;;5.53;96.78;99814.91;4981041;28;20885;-54
2022/11/17 08:28:50;;;;;;;12.47;7.60;;;;;;;5.29;95.02;99826.06;4977856;28;20234;-53
2022/11/17 08:31:19;;;;;;;8.77;7.87;;;;;;;5.29;95.39;99812.19;4985169;28;20234;-52
2022/11/17 08:33:46;;;;;;;8.73;7.83;;;;;;;5.54;97.43;99807.97;4977953;28;20313;-53
2022/11/17 08:36:13;;;;;;;9.73;7.23;;;;;;;5.35;95.10;99800.09;4987783;28;20230;-54
2022/11/17 08:38:40;;;;;;;8.17;7.30;;;;;;;5.32;96.12;99794.84;4981858;28;20321;-60
2022/11/17 08:41:08;;;;;;;8.57;7.67;;;;;;;5.84;93.83;99800.28;4979693;28;20618;-54
2022/11/17 08:43:35;;;;;;;9.07;8.27;;;;;;;5.39;93.58;99800.97;4979455;28;20236;-54
2022/11/17 08:46:03;;;;;;;12.87;9.23;;;;;;;5.49;94.84;99806.22;4981310;28;20269;-53
2022/11/17 08:48:33;;;;;;;10.43;8.20;;;;;;;5.64;96.56;99807.16;4980645;28;20249;-53
2022/11/17 08:51:05;;;;;;;10.27;7.93;;;;;;;5.52;94.04;99805.38;4980266;28;20233;-53
2022/11/17 08:53:32;;;;;;;11.20;8.37;;;;;;;5.58;96.46;99802.81;4982728;28;20229;-55
2022/11/17 08:55:59;;;;;;;12.17;8.80;;;;;;;5.33;92.93;99803.53;4980121;28;20237;-54
2022/11/17 08:58:26;;;;;;;9.80;8.13;;;;;;;5.27;95.65;99801.78;4979182;28;20953;-53
2022/11/17 09:00:53;;;;;;;11.20;8.87;;;;;;;5.48;95.18;99807.09;4982280;28;20229;-52
2022/11/17 09:03:20;;;;;;;9.40;8.20;;;;;;;5.39;94.08;99814.84;4976792;28;20320;-53
2022/11/17 09:05:48;;;;;;;8.67;7.60;;;;;;;5.38;95.34;99809.66;4979690;28;20234;-53
2022/11/17 09:08:15;;;;;;;9.00;8.03;;;;;;;5.84;95.10;99820.25;4971195;28;20587;-54
2022/11/17 09:10:43;;;;;;;9.30;8.30;;;;;;;5.73;93.77;99808.06;4976629;28;20583;-53
2022/11/17 09:13:09;;;;;;;12.77;9.17;;;;;;;5.81;93.13;99820.25;4976753;28;20240;-54
2022/11/17 09:15:36;;;;;;;9.47;8.03;;;;;;;5.75;93.37;99823.69;4971915;28;20732;-58
2022/11/17 09:18:03;;;;;;;13.33;9.43;;;;;;;5.78;94.24;99820.22;4976961;28;20257;-53
2022/11/17 09:20:30;;;;;;;10.10;8.40;;;;;;;5.64;92.58;99831.44;4975289;28;20328;-53
2022/11/17 09:23:01;;;;;;;12.30;9.10;;;;;;;5.81;94.73;99833.25;4974587;28;20234;-53
2022/11/17 09:25:28;;;;;;;9.93;8.93;;;;;;;5.47;95.10;99830.50;4973206;28;20244;-53
2022/11/17 09:27:55;;;;;;;11.00;8.83;;;;;;;5.53;94.66;99829.66;4976747;28;20241;-54
2022/11/17 09:30:22;;;;;;;12.93;8.63;;;;;;;5.72;94.33;99829.78;4980371;28;20223;-53
2022/11/17 09:32:50;;;;;;;10.33;8.50;;;;;;;5.67;96.13;99836.66;4974087;28;20240;-53
2022/11/17 09:35:17;;;;;;;10.50;9.03;;;;;;;5.60;94.49;99832.31;4975232;28;20237;-52
2022/11/17 09:37:45;;;;;;;10.63;9.10;;;;;;;5.67;92.61;99831.47;4978576;28;20237;-53
2022/11/17 09:40:16;;;;;;;12.97;10.33;;;;;;;5.66;94.78;99821.91;4977292;28;20226;-54
2022/11/17 09:42:43;;;;;;;12.20;10.27;;;;;;;5.61;94.72;99823.63;4975666;28;20789;-53
2022/11/17 09:45:15;;;;;;;9.97;8.97;;;;;;;5.97;95.67;99822.06;4972315;28;20248;-54
2022/11/17 09:47:46;;;;;;;9.40;8.37;;;;;;;5.90;96.12;99826.34;4972614;28;20230;-53
2022/11/17 09:50:18;;;;;;;10.43;8.93;;;;;;;6.02;94.93;99819.47;4978761;28;20232;-53
2022/11/17 09:52:53;;;;;;;10.13;9.00;;;;;;;6.06;94.06;99816.00;4970610;28;20265;-53
2022/11/17 09:55:26;;;;;;;9.80;8.77;;;;;;;6.25;93.18;99811.69;4977189;28;20280;-54
2022/11/17 09:58:00;;;;;;;13.77;10.07;;;;;;;5.85;92.82;99816.78;4976596;28;20265;-53
2022/11/17 10:00:27;;;;;;;11.80;8.93;;;;;;;5.66;93.62;99818.44;4979152;28;20238;-52
2022/11/17 10:02:54;;;;;;;12.27;10.57;;;;;;;5.72;95.03;99814.16;4979393;28;20261;-53
2022/11/17 10:05:27;;;;;;;12.77;10.00;;;;;;;5.89;94.07;99822.00;4979572;28;20240;-54
2022/11/17 10:07:55;;;;;;;13.27;10.53;;;;;;;6.04;93.28;99821.22;4974513;28;20810;-55
2022/11/17 10:10:33;;;;;;;12.03;9.97;;;;;;;6.06;93.94;99816.00;4976953;28;20237;-53
2022/11/17 10:13:01;;;;;;;11.50;9.83;;;;;;;5.91;91.99;99816.81;4981942;28;20707;-54
2022/11/17 10:15:33;;;;;;;14.47;10.43;;;;;;;5.98;95.70;99810.78;4981731;28;20253;-52
2022/11/17 10:18:00;;;;;;;13.60;9.70;;;;;;;5.82;93.34;99821.97;4983035;28;20233;-54
2022/11/17 10:20:27;;;;;;;12.63;10.20;;;;;;;6.11;96.11;99809.94;4978409;28;20236;-53
2022/11/17 10:22:54;;;;;;;12.87;10.03;;;;;;;5.86;94.17;99808.09;4982824;28;20229;-54
2022/11/17 10:25:35;;;;;;;12.73;10.23;;;;;;;5.91;93.95;99809.84;4980628;28;20229;-54
2022/11/17 10:28:02;;;;;;;12.90;9.97;;;;;;;5.58;94.28;99796.69;4979390;28;20246;-53
2022/11/17 10:30:29;;;;;;;11.20;9.73;;;;;;;5.47;96.49;99794.06;4977507;28;20278;-53
2022/11/17 10:32:57;;;;;;;14.70;10.77;;;;;;;5.52;95.43;99802.78;4980819;28;20329;-53
2022/11/17 10:35:29;;;;;;;11.67;9.73;;;;;;;5.85;95.00;99795.94;4967700;28;20261;-53
2022/11/17 10:37:58;;;;;;;15.00;10.17;;;;;;;6.01;92.65;99796.91;4973606;28;20234;-53
2022/11/17 10:40:27;;;;;;;15.03;10.47;;;;;;;5.99;93.47;99794.28;4976183;28;20303;-53
2022/11/17 10:42:58;;;;;;;11.10;9.93;;;;;;;5.86;93.92;99782.94;4980751;28;20329;-53
2022/11/17 10:45:25;;;;;;;13.03;10.40;;;;;;;6.02;94.16;99783.00;4980924;28;20313;-53
2022/11/17 10:47:51;;;;;;;11.23;9.87;;;;;;;6.30;91.95;99778.69;4977956;28;20261;-53
2022/11/17 10:50:23;;;;;;;10.10;9.00;;;;;;;5.97;94.71;99780.38;4979877;28;20237;-54
2022/11/17 10:52:51;;;;;;;11.03;9.60;;;;;;;6.02;95.07;99777.78;4981342;28;20230;-55
2022/11/17 10:55:27;;;;;;;11.33;9.50;;;;;;;5.87;93.35;99789.00;4978397;28;20341;-53
2022/11/17 10:57:57;;;;;;;13.43;8.53;;;;;;;5.75;94.44;99774.19;4979458;28;20307;-56
2022/11/17 11:00:29;;;;;;;10.67;9.67;;;;;;;6.02;94.53;99776.03;4980513;28;20369;-54
2022/11/17 11:03:15;;;;;;;12.27;9.67;;;;;;;5.77;93.51;99756.84;4982465;28;20285;-54
2022/11/17 11:05:55;;;;;;;10.33;8.90;;;;;;;5.86;93.19;99756.00;4975898;28;20636;-52
2022/11/17 11:08:23;;;;;;;13.57;10.13;;;;;;;6.12;92.64;99748.28;4987264;28;20264;-59
2022/11/17 11:10:52;;;;;;;10.47;9.33;;;;;;;5.82;92.60;99743.84;4986373;28;20241;-53
2022/11/17 11:13:25;;;;;;;11.13;9.33;;;;;;;5.83;95.53;99745.59;4983621;28;20915;-53
2022/11/17 11:15:52;;;;;;;10.90;9.20;;;;;;;6.17;92.68;99746.53;4988693;28;20530;-53
2022/11/17 11:18:19;;;;;;;14.07;10.23;;;;;;;5.96;93.24;99734.34;4984442;28;20234;-52
2022/11/17 11:20:51;;;;;;;29.40;13.00;;;;;;;5.85;93.86;99749.06;4986119;28;20226;-60
2022/11/17 11:23:20;;;;;;;16.23;10.83;;;;;;;6.09;92.87;99743.06;4986667;28;20293;-52
2022/11/17 11:25:51;;;;;;;11.27;9.40;;;;;;;6.21;90.70;99756.97;4977255;28;20316;-53
2022/11/17 11:28:33;;;;;;;10.93;8.40;;;;;;;6.07;92.44;99750.88;4990119;28;20464;-53
2022/11/17 11:31:08;;;;;;;12.43;8.40;;;;;;;5.92;94.37;99750.81;4982065;28;20265;-53
2022/11/17 11:33:38;;;;;;;11.63;8.87;;;;;;;6.04;93.35;99744.75;4981463;28;20252;-52
2022/11/17 11:36:15;;;;;;;12.10;9.43;;;;;;;5.93;92.34;99749.97;4978535;28;20285;-52
2022/11/17 11:38:49;;;;;;;17.70;9.87;;;;;;;6.24;92.78;99731.75;4980885;28;20233;-53
2022/11/17 11:41:28;;;;;;;16.53;9.60;;;;;;;6.22;93.17;99730.03;4989969;28;20759;-53
2022/11/17 11:44:06;;;;;;;11.97;8.67;;;;;;;6.02;91.08;99726.53;4984582;28;20305;-53
2022/11/17 11:46:39;;;;;;;12.57;9.63;;;;;;;5.85;94.00;99720.41;4977752;28;20730;-53
2022/11/17 11:49:13;;;;;;;13.47;9.17;;;;;;;5.78;93.27;99714.31;4984440;28;20685;-54
2022/11/17 11:51:39;;;;;;;11.90;8.23;;;;;;;6.08;95.11;99710.91;4987041;28;20234;-53
2022/11/17 11:54:13;;;;;;;10.93;9.40;;;;;;;5.92;92.23;99725.66;4991816;28;20238;-53
2022/11/17 11:56:43;;;;;;;11.10;8.87;;;;;;;5.94;94.01;99718.72;4994898;28;20337;-53
2022/11/17 11:59:14;;;;;;;9.40;8.40;;;;;;;5.87;91.99;99726.50;4991182;28;20244;-53
2022/11/17 12:01:47;;;;;;;10.70;8.13;;;;;;;5.81;93.00;99721.25;4991111;28;20827;-52
2022/11/17 12:04:26;;;;;;;9.63;8.10;;;;;;;5.76;93.48;99721.25;4978812;28;20232;-54
2022/11/17 12:06:59;;;;;;;10.80;8.23;;;;;;;5.77;91.78;99706.50;4977414;28;20335;-53
2022/11/17 12:09:50;;;;;;;9.27;8.27;;;;;;;5.86;93.45;99719.53;4984304;28;20257;-53